sensor_id;sensor_type;location;lat;lon;timestamp;pressure;altitude;pressure_sealevel;temperature;humidity
5883;BME280;2967;51.488;6.618;2024-03-02T00:03:46;99742.41;;;11.16;91.48
5883;BME280;2967;51.488;6.618;2024-03-02T00:08:51;99733.50;;;11.17;91.86
5883;BME280;2967;51.488;6.618;2024-03-02T00:13:54;99725.44;;;11.18;92.34
5883;BME280;2967;51.488;6.618;2024-03-02T00:19:01;99676.91;;;11.08;92.07
5883;BME280;2967;51.488;6.618;2024-03-02T00:24:17;99702.53;;;11.28;91.56
5883;BME280;2967;51.488;6.618;2024-03-02T00:29:21;99720.28;;;11.37;91.32
5883;BME280;2967;51.488;6.618;2024-03-02T00:34:27;99713.56;;;11.33;91.39
5883;BME280;2967;51.488;6.618;2024-03-02T00:39:32;99721.00;;;11.39;91.71
5883;BME280;2967;51.488;6.618;2024-03-02T00:44:35;99715.03;;;11.47;90.58
5883;BME280;2967;51.488;6.618;2024-03-02T00:49:39;99646.69;;;11.11;91.52
5883;BME280;2967;51.488;6.618;2024-03-02T00:54:44;99702.97;;;11.33;91.90
5883;BME280;2967;51.488;6.618;2024-03-02T00:59:47;99727.97;;;11.40;92.12
5883;BME280;2967;51.488;6.618;2024-03-02T01:04:50;99703.81;;;11.34;91.93
5883;BME280;2967;51.488;6.618;2024-03-02T01:09:54;99714.06;;;11.48;90.96
5883;BME280;2967;51.488;6.618;2024-03-02T01:14:57;99718.22;;;11.61;90.80
5883;BME280;2967;51.488;6.618;2024-03-02T01:20:00;99657.78;;;11.25;91.00
5883;BME280;2967;51.488;6.618;2024-03-02T01:25:05;99682.06;;;11.30;90.93
5883;BME280;2967;51.488;6.618;2024-03-02T01:30:08;99717.72;;;11.56;90.95
5883;BME280;2967;51.488;6.618;2024-03-02T01:35:12;99719.31;;;11.59;91.39
5883;BME280;2967;51.488;6.618;2024-03-02T01:40:17;99720.53;;;11.55;91.17
5883;BME280;2967;51.488;6.618;2024-03-02T01:45:35;99708.84;;;11.87;97.95
5883;BME280;2967;51.488;6.618;2024-03-02T01:51:06;99715.69;;;12.29;88.77
5883;BME280;2967;51.488;6.618;2024-03-02T01:56:10;99715.75;;;12.09;88.87
5883;BME280;2967;51.488;6.618;2024-03-02T02:01:13;99717.13;;;11.94;89.44
5883;BME280;2967;51.488;6.618;2024-03-02T02:06:17;99715.56;;;11.91;89.29
5883;BME280;2967;51.488;6.618;2024-03-02T02:11:22;99697.91;;;11.71;89.62
5883;BME280;2967;51.488;6.618;2024-03-02T02:16:25;99697.44;;;11.66;89.35
5883;BME280;2967;51.488;6.618;2024-03-02T02:21:29;99644.28;;;11.28;89.75
5883;BME280;2967;51.488;6.618;2024-03-02T02:26:32;99731.38;;;11.72;90.09
5883;BME280;2967;51.488;6.618;2024-03-02T02:31:43;99727.88;;;11.72;90.92
5883;BME280;2967;51.488;6.618;2024-03-02T02:36:47;99736.38;;;11.66;90.52
5883;BME280;2967;51.488;6.618;2024-03-02T02:41:52;99727.44;;;11.67;90.91
5883;BME280;2967;51.488;6.618;2024-03-02T02:46:55;99707.38;;;11.44;90.63
5883;BME280;2967;51.488;6.618;2024-03-02T02:52:00;99737.47;;;11.63;91.29
5883;BME280;2967;51.488;6.618;2024-03-02T02:57:02;99743.25;;;11.57;91.24
5883;BME280;2967;51.488;6.618;2024-03-02T03:02:06;99681.19;;;11.30;91.05
5883;BME280;2967;51.488;6.618;2024-03-02T03:07:10;99740.38;;;11.60;91.29
5883;BME280;2967;51.488;6.618;2024-03-02T03:12:13;99747.00;;;11.75;90.32
5883;BME280;2967;51.488;6.618;2024-03-02T03:17:16;99732.75;;;11.67;89.93
5883;BME280;2967;51.488;6.618;2024-03-02T03:22:20;99741.78;;;11.44;91.56
5883;BME280;2967;51.488;6.618;2024-03-02T03:27:23;99732.78;;;11.35;92.34
5883;BME280;2967;51.488;6.618;2024-03-02T03:32:27;99754.72;;;11.58;91.33
5883;BME280;2967;51.488;6.618;2024-03-02T03:37:31;99692.78;;;11.08;91.85
5883;BME280;2967;51.488;6.618;2024-03-02T03:42:35;99749.56;;;11.45;92.42
5883;BME280;2967;51.488;6.618;2024-03-02T03:47:38;99739.81;;;11.25;94.07
5883;BME280;2967;51.488;6.618;2024-03-02T03:52:42;99744.53;;;11.22;95.11
5883;BME280;2967;51.488;6.618;2024-03-02T03:57:45;99745.97;;;11.26;95.97
5883;BME280;2967;51.488;6.618;2024-03-02T04:02:48;99733.63;;;11.15;96.84
5883;BME280;2967;51.488;6.618;2024-03-02T04:07:52;99707.28;;;10.93;97.55
5883;BME280;2967;51.488;6.618;2024-03-02T04:12:55;99699.34;;;10.73;97.83
5883;BME280;2967;51.488;6.618;2024-03-02T19:20:47;99727.38;;;14.86;76.92
5883;BME280;2967;51.488;6.618;2024-03-02T19:25:51;99689.72;;;14.64;76.51
5883;BME280;2967;51.488;6.618;2024-03-02T19:30:58;99716.19;;;14.83;76.33
5883;BME280;2967;51.488;6.618;2024-03-02T19:36:02;99704.09;;;14.88;76.62
5883;BME280;2967;51.488;6.618;2024-03-02T19:41:05;99709.66;;;14.95;76.12
5883;BME280;2967;51.488;6.618;2024-03-02T20:07:22;99513.28;;;13.49;78.77
5883;BME280;2967;51.488;6.618;2024-03-02T20:12:25;99544.19;;;13.67;79.72
5883;BME280;2967;51.488;6.618;2024-03-02T20:17:29;99657.06;;;14.27;80.00
5883;BME280;2967;51.488;6.618;2024-03-02T20:22:35;99617.88;;;14.02;80.37
5883;BME280;2967;51.488;6.618;2024-03-02T20:27:37;99671.13;;;14.37;80.81
5883;BME280;2967;51.488;6.618;2024-03-02T20:32:41;99664.44;;;14.33;81.50
5883;BME280;2967;51.488;6.618;2024-03-02T20:37:47;99661.69;;;14.25;82.46
5883;BME280;2967;51.488;6.618;2024-03-02T20:42:52;99614.81;;;13.97;82.37
5883;BME280;2967;51.488;6.618;2024-03-02T20:47:56;99616.81;;;14.12;82.41
5883;BME280;2967;51.488;6.618;2024-03-02T20:53:00;99664.38;;;14.42;82.60
5883;BME280;2967;51.488;6.618;2024-03-02T20:58:08;99653.50;;;14.36;82.51
5883;BME280;2967;51.488;6.618;2024-03-02T21:03:11;99563.44;;;13.79;82.64
5883;BME280;2967;51.488;6.618;2024-03-02T21:08:18;99642.25;;;14.24;83.32
5883;BME280;2967;51.488;6.618;2024-03-02T21:13:21;99653.72;;;14.25;83.20
5883;BME280;2967;51.488;6.618;2024-03-02T21:18:24;99597.84;;;14.25;86.38
5883;BME280;2967;51.488;6.618;2024-03-02T21:23:29;99665.75;;;14.99;81.98
5883;BME280;2967;51.488;6.618;2024-03-02T21:28:31;99667.50;;;14.90;79.93
5883;BME280;2967;51.488;6.618;2024-03-02T21:33:34;99654.66;;;14.68;80.03
5883;BME280;2967;51.488;6.618;2024-03-02T21:38:41;99673.75;;;14.81;80.31
5883;BME280;2967;51.488;6.618;2024-03-02T21:43:44;99667.41;;;14.82;80.30
5883;BME280;2967;51.488;6.618;2024-03-02T21:48:47;99633.28;;;14.60;80.62
5883;BME280;2967;51.488;6.618;2024-03-02T21:53:57;99635.63;;;14.46;81.70
5883;BME280;2967;51.488;6.618;2024-03-02T21:59:00;99647.72;;;14.58;81.36
5883;BME280;2967;51.488;6.618;2024-03-02T22:04:04;99626.53;;;14.31;81.97
5883;BME280;2967;51.488;6.618;2024-03-02T22:09:08;99651.00;;;14.34;82.92
5883;BME280;2967;51.488;6.618;2024-03-02T22:14:23;99638.94;;;14.40;82.98
5883;BME280;2967;51.488;6.618;2024-03-02T22:19:29;99628.84;;;14.16;83.64
5883;BME280;2967;51.488;6.618;2024-03-02T22:24:33;99651.06;;;14.25;84.09
5883;BME280;2967;51.488;6.618;2024-03-02T22:29:38;99567.00;;;13.70;84.21
5883;BME280;2967;51.488;6.618;2024-03-02T22:34:42;99675.31;;;14.39;84.28
5883;BME280;2967;51.488;6.618;2024-03-02T22:39:46;99674.25;;;14.32;84.96
5883;BME280;2967;51.488;6.618;2024-03-02T22:44:49;99616.50;;;13.98;84.86
5883;BME280;2967;51.488;6.618;2024-03-02T22:49:55;99682.22;;;14.32;86.29
5883;BME280;2967;51.488;6.618;2024-03-02T22:55:05;99678.28;;;14.36;86.52
5883;BME280;2967;51.488;6.618;2024-03-02T23:00:09;99682.09;;;14.34;86.69
5883;BME280;2967;51.488;6.618;2024-03-02T23:05:34;99653.63;;;14.17;86.60
5883;BME280;2967;51.488;6.618;2024-03-02T23:10:40;99681.50;;;14.40;86.08
5883;BME280;2967;51.488;6.618;2024-03-02T23:15:43;99676.75;;;14.34;85.73
5883;BME280;2967;51.488;6.618;2024-03-02T23:20:48;99709.16;;;14.47;86.28
5883;BME280;2967;51.488;6.618;2024-03-02T23:25:55;99650.56;;;14.12;86.71
5883;BME280;2967;51.488;6.618;2024-03-02T23:30:58;99694.50;;;14.43;86.73
5883;BME280;2967;51.488;6.618;2024-03-02T23:36:01;99677.00;;;14.40;87.21
5883;BME280;2967;51.488;6.618;2024-03-02T23:41:08;99683.44;;;14.38;87.47
5883;BME280;2967;51.488;6.618;2024-03-02T23:46:12;99676.75;;;14.34;88.02
5883;BME280;2967;51.488;6.618;2024-03-02T23:51:15;99677.63;;;14.34;88.08
5883;BME280;2967;51.488;6.618;2024-03-02T23:56:19;99666.13;;;14.51;93.41
